sensor_id;sensor_type;location;lat;lon;timestamp;temperature;humidity
52036;DHT22;38046;49.448;32.074;2023-03-01T00:01:11;1.00;71.40
52036;DHT22;38046;49.448;32.074;2023-03-01T00:03:37;0.90;71.50
52036;DHT22;38046;49.448;32.074;2023-03-01T00:06:03;0.80;71.70
52036;DHT22;38046;49.448;32.074;2023-03-01T00:08:30;0.80;71.90
52036;DHT22;38046;49.448;32.074;2023-03-01T00:11:22;0.70;72.10
52036;DHT22;38046;49.448;32.074;2023-03-01T00:13:50;0.70;72.10
52036;DHT22;38046;49.448;32.074;2023-03-01T00:16:28;0.60;72.80
52036;DHT22;38046;49.448;32.074;2023-03-01T00:18:55;0.60;72.20
52036;DHT22;38046;49.448;32.074;2023-03-01T00:21:22;0.50;72.40
52036;DHT22;38046;49.448;32.074;2023-03-01T00:23:48;0.50;72.40
52036;DHT22;38046;49.448;32.074;2023-03-01T00:26:15;0.50;72.40
52036;DHT22;38046;49.448;32.074;2023-03-01T00:28:42;0.50;72.60
52036;DHT22;38046;49.448;32.074;2023-03-01T00:31:16;0.50;72.60
52036;DHT22;38046;49.448;32.074;2023-03-01T00:33:42;0.50;72.60
52036;DHT22;38046;49.448;32.074;2023-03-01T00:36:10;0.50;72.70
52036;DHT22;38046;49.448;32.074;2023-03-01T00:38:42;0.40;72.70
52036;DHT22;38046;49.448;32.074;2023-03-01T00:41:13;0.40;72.60
52036;DHT22;38046;49.448;32.074;2023-03-01T00:43:40;0.50;72.70
52036;DHT22;38046;49.448;32.074;2023-03-01T00:46:14;0.40;72.80
52036;DHT22;38046;49.448;32.074;2023-03-01T00:48:41;0.40;72.80
52036;DHT22;38046;49.448;32.074;2023-03-01T00:51:08;0.40;73.00
52036;DHT22;38046;49.448;32.074;2023-03-01T00:53:35;0.40;72.90
52036;DHT22;38046;49.448;32.074;2023-03-01T00:56:02;0.40;73.00
52036;DHT22;38046;49.448;32.074;2023-03-01T00:58:27;0.40;73.10
52036;DHT22;38046;49.448;32.074;2023-03-01T01:00:53;0.30;73.00
52036;DHT22;38046;49.448;32.074;2023-03-01T01:03:19;0.30;73.10
52036;DHT22;38046;49.448;32.074;2023-03-01T01:05:45;0.40;73.40
52036;DHT22;38046;49.448;32.074;2023-03-01T01:08:11;0.40;73.20
52036;DHT22;38046;49.448;32.074;2023-03-01T01:10:37;0.40;73.20
52036;DHT22;38046;49.448;32.074;2023-03-01T01:13:03;0.30;73.20
52036;DHT22;38046;49.448;32.074;2023-03-01T01:15:29;0.40;73.20
52036;DHT22;38046;49.448;32.074;2023-03-01T01:17:54;0.40;73.20
52036;DHT22;38046;49.448;32.074;2023-03-01T01:20:20;0.40;73.20
52036;DHT22;38046;49.448;32.074;2023-03-01T01:22:46;0.40;73.20
52036;DHT22;38046;49.448;32.074;2023-03-01T01:25:11;0.50;73.30
52036;DHT22;38046;49.448;32.074;2023-03-01T01:27:37;0.50;73.30
52036;DHT22;38046;49.448;32.074;2023-03-01T01:30:03;0.50;73.20
52036;DHT22;38046;49.448;32.074;2023-03-01T01:32:29;0.60;73.00
52036;DHT22;38046;49.448;32.074;2023-03-01T01:34:55;0.60;73.00
52036;DHT22;38046;49.448;32.074;2023-03-01T01:37:21;0.60;73.00
52036;DHT22;38046;49.448;32.074;2023-03-01T01:39:47;0.50;73.00
52036;DHT22;38046;49.448;32.074;2023-03-01T01:42:16;0.50;73.00
52036;DHT22;38046;49.448;32.074;2023-03-01T01:44:45;0.60;73.00
52036;DHT22;38046;49.448;32.074;2023-03-01T01:47:19;0.50;73.10
52036;DHT22;38046;49.448;32.074;2023-03-01T01:49:55;0.50;73.00
52036;DHT22;38046;49.448;32.074;2023-03-01T01:52:57;0.50;73.10
52036;DHT22;38046;49.448;32.074;2023-03-01T01:55:23;0.60;73.40
52036;DHT22;38046;49.448;32.074;2023-03-01T01:57:56;0.70;73.20
52036;DHT22;38046;49.448;32.074;2023-03-01T02:00:26;0.80;73.00
52036;DHT22;38046;49.448;32.074;2023-03-01T02:02:55;0.90;72.80
52036;DHT22;38046;49.448;32.074;2023-03-01T02:05:32;1.00;72.40
52036;DHT22;38046;49.448;32.074;2023-03-01T02:07:59;1.10;72.20
52036;DHT22;38046;49.448;32.074;2023-03-01T02:10:25;1.10;71.90
52036;DHT22;38046;49.448;32.074;2023-03-01T02:12:52;1.20;71.70
52036;DHT22;38046;49.448;32.074;2023-03-01T02:15:18;1.30;71.50
52036;DHT22;38046;49.448;32.074;2023-03-01T02:17:44;1.30;71.60
52036;DHT22;38046;49.448;32.074;2023-03-01T02:22:43;1.40;71.20
52036;DHT22;38046;49.448;32.074;2023-03-01T02:27:54;1.40;71.00
52036;DHT22;38046;49.448;32.074;2023-03-01T02:30:24;1.40;70.90
52036;DHT22;38046;49.448;32.074;2023-03-01T02:32:52;1.40;70.90
52036;DHT22;38046;49.448;32.074;2023-03-01T02:35:19;1.50;70.90
52036;DHT22;38046;49.448;32.074;2023-03-01T02:37:46;1.40;70.70
52036;DHT22;38046;49.448;32.074;2023-03-01T02:40:17;1.40;70.70
52036;DHT22;38046;49.448;32.074;2023-03-01T02:42:55;1.40;71.00
52036;DHT22;38046;49.448;32.074;2023-03-01T02:45:21;1.40;71.10
52036;DHT22;38046;49.448;32.074;2023-03-01T02:47:47;1.40;71.20
52036;DHT22;38046;49.448;32.074;2023-03-01T02:55:26;1.30;71.00
52036;DHT22;38046;49.448;32.074;2023-03-01T02:57:53;1.30;71.10
52036;DHT22;38046;49.448;32.074;2023-03-01T03:00:24;1.40;71.10
52036;DHT22;38046;49.448;32.074;2023-03-01T03:02:53;1.40;71.10
52036;DHT22;38046;49.448;32.074;2023-03-01T03:05:22;1.40;71.00
52036;DHT22;38046;49.448;32.074;2023-03-01T03:07:49;1.50;71.00
52036;DHT22;38046;49.448;32.074;2023-03-01T03:10:20;1.50;70.90
52036;DHT22;38046;49.448;32.074;2023-03-01T03:12:51;1.60;70.80
52036;DHT22;38046;49.448;32.074;2023-03-01T03:15:18;1.60;70.70
52036;DHT22;38046;49.448;32.074;2023-03-01T03:17:44;1.60;70.50
52036;DHT22;38046;49.448;32.074;2023-03-01T03:20:12;1.70;70.30
52036;DHT22;38046;49.448;32.074;2023-03-01T03:22:39;1.70;70.30
52036;DHT22;38046;49.448;32.074;2023-03-01T03:25:08;1.70;70.10
52036;DHT22;38046;49.448;32.074;2023-03-01T03:27:38;1.70;70.30
52036;DHT22;38046;49.448;32.074;2023-03-01T03:30:06;1.70;70.10
52036;DHT22;38046;49.448;32.074;2023-03-01T03:32:35;1.70;70.10
52036;DHT22;38046;49.448;32.074;2023-03-01T03:35:02;1.70;70.00
52036;DHT22;38046;49.448;32.074;2023-03-01T03:37:27;1.70;69.90
52036;DHT22;38046;49.448;32.074;2023-03-01T03:40:12;1.70;69.70
52036;DHT22;38046;49.448;32.074;2023-03-01T03:42:41;1.70;69.80
52036;DHT22;38046;49.448;32.074;2023-03-01T03:45:07;1.70;69.80
52036;DHT22;38046;49.448;32.074;2023-03-01T03:47:33;1.70;69.80
52036;DHT22;38046;49.448;32.074;2023-03-01T03:49:58;1.70;69.90
52036;DHT22;38046;49.448;32.074;2023-03-01T03:52:24;1.70;69.60
52036;DHT22;38046;49.448;32.074;2023-03-01T03:54:49;1.70;69.60
52036;DHT22;38046;49.448;32.074;2023-03-01T03:57:15;1.80;69.60
52036;DHT22;38046;49.448;32.074;2023-03-01T03:59:41;1.80;69.60
52036;DHT22;38046;49.448;32.074;2023-03-01T04:02:06;1.80;69.60
52036;DHT22;38046;49.448;32.074;2023-03-01T04:04:34;1.80;69.60
52036;DHT22;38046;49.448;32.074;2023-03-01T04:06:59;1.80;69.50
52036;DHT22;38046;49.448;32.074;2023-03-01T04:09:25;1.80;69.50
52036;DHT22;38046;49.448;32.074;2023-03-01T04:11:51;1.80;69.50
52036;DHT22;38046;49.448;32.074;2023-03-01T04:14:16;1.80;69.30
52036;DHT22;38046;49.448;32.074;2023-03-01T04:16:42;1.80;69.50
52036;DHT22;38046;49.448;32.074;2023-03-01T04:19:08;1.80;69.50
52036;DHT22;38046;49.448;32.074;2023-03-01T04:21:34;1.80;69.50
52036;DHT22;38046;49.448;32.074;2023-03-01T04:24:01;1.80;69.50
52036;DHT22;38046;49.448;32.074;2023-03-01T04:26:29;1.80;69.40
52036;DHT22;38046;49.448;32.074;2023-03-01T04:28:54;1.80;69.40
52036;DHT22;38046;49.448;32.074;2023-03-01T04:31:20;1.80;69.40
52036;DHT22;38046;49.448;32.074;2023-03-01T04:33:54;1.80;69.40
52036;DHT22;38046;49.448;32.074;2023-03-01T04:36:25;1.80;69.30
52036;DHT22;38046;49.448;32.074;2023-03-01T04:38:51;1.80;69.10
52036;DHT22;38046;49.448;32.074;2023-03-01T04:41:19;1.80;69.30
52036;DHT22;38046;49.448;32.074;2023-03-01T04:43:45;1.80;69.40
52036;DHT22;38046;49.448;32.074;2023-03-01T04:46:14;1.80;69.40
52036;DHT22;38046;49.448;32.074;2023-03-01T04:48:41;1.70;69.30
52036;DHT22;38046;49.448;32.074;2023-03-01T04:51:07;1.70;69.40
52036;DHT22;38046;49.448;32.074;2023-03-01T04:53:34;1.70;69.60
52036;DHT22;38046;49.448;32.074;2023-03-01T04:56:02;1.70;69.60
52036;DHT22;38046;49.448;32.074;2023-03-01T04:58:28;1.70;69.90
52036;DHT22;38046;49.448;32.074;2023-03-01T05:00:55;1.70;69.90
52036;DHT22;38046;49.448;32.074;2023-03-01T05:03:21;1.70;69.60
52036;DHT22;38046;49.448;32.074;2023-03-01T05:05:49;1.80;69.80
52036;DHT22;38046;49.448;32.074;2023-03-01T05:08:15;1.80;69.90
52036;DHT22;38046;49.448;32.074;2023-03-01T05:10:51;1.90;70.60
52036;DHT22;38046;49.448;32.074;2023-03-01T05:13:18;2.00;69.90
52036;DHT22;38046;49.448;32.074;2023-03-01T05:15:55;2.10;69.70
52036;DHT22;38046;49.448;32.074;2023-03-01T05:18:22;2.20;69.70
52036;DHT22;38046;49.448;32.074;2023-03-01T05:20:54;2.20;69.60
52036;DHT22;38046;49.448;32.074;2023-03-01T05:23:24;2.30;69.40
52036;DHT22;38046;49.448;32.074;2023-03-01T05:25:50;2.40;69.70
52036;DHT22;38046;49.448;32.074;2023-03-01T05:28:18;2.50;69.20
52036;DHT22;38046;49.448;32.074;2023-03-01T05:30:45;2.50;69.00
52036;DHT22;38046;49.448;32.074;2023-03-01T05:33:11;2.60;69.30
52036;DHT22;38046;49.448;32.074;2023-03-01T05:35:42;2.70;69.00
52036;DHT22;38046;49.448;32.074;2023-03-01T05:38:11;2.80;68.90
52036;DHT22;38046;49.448;32.074;2023-03-01T05:40:44;3.00;68.70
52036;DHT22;38046;49.448;32.074;2023-03-01T05:43:11;3.10;68.60
52036;DHT22;38046;49.448;32.074;2023-03-01T05:45:38;3.20;68.20
52036;DHT22;38046;49.448;32.074;2023-03-01T05:48:05;3.30;68.20
52036;DHT22;38046;49.448;32.074;2023-03-01T05:50:34;3.40;68.20
52036;DHT22;38046;49.448;32.074;2023-03-01T05:53:03;3.50;68.00
52036;DHT22;38046;49.448;32.074;2023-03-01T05:55:31;3.60;67.90
52036;DHT22;38046;49.448;32.074;2023-03-01T05:58:06;3.50;67.70
52036;DHT22;38046;49.448;32.074;2023-03-01T06:00:32;3.60;68.00
52036;DHT22;38046;49.448;32.074;2023-03-01T06:02:58;3.60;68.50
52036;DHT22;38046;49.448;32.074;2023-03-01T06:05:24;3.70;68.40
52036;DHT22;38046;49.448;32.074;2023-03-01T06:07:51;3.80;67.70
52036;DHT22;38046;49.448;32.074;2023-03-01T06:10:17;3.80;67.40
52036;DHT22;38046;49.448;32.074;2023-03-01T06:12:44;3.80;67.50
52036;DHT22;38046;49.448;32.074;2023-03-01T06:15:11;3.80;68.20
52036;DHT22;38046;49.448;32.074;2023-03-01T06:17:39;3.80;67.50
52036;DHT22;38046;49.448;32.074;2023-03-01T06:20:17;3.90;67.70
52036;DHT22;38046;49.448;32.074;2023-03-01T06:22:44;4.00;67.80
52036;DHT22;38046;49.448;32.074;2023-03-01T06:25:11;4.10;67.80
52036;DHT22;38046;49.448;32.074;2023-03-01T06:27:38;4.20;66.70
52036;DHT22;38046;49.448;32.074;2023-03-01T06:30:04;4.30;66.40
52036;DHT22;38046;49.448;32.074;2023-03-01T06:32:29;4.30;66.20
52036;DHT22;38046;49.448;32.074;2023-03-01T06:34:56;4.40;65.90
52036;DHT22;38046;49.448;32.074;2023-03-01T06:37:24;4.40;65.90
52036;DHT22;38046;49.448;32.074;2023-03-01T06:39:49;4.40;65.40
52036;DHT22;38046;49.448;32.074;2023-03-01T06:42:15;4.30;65.10
52036;DHT22;38046;49.448;32.074;2023-03-01T06:44:41;4.20;65.30
52036;DHT22;38046;49.448;32.074;2023-03-01T06:47:06;4.10;65.30
52036;DHT22;38046;49.448;32.074;2023-03-01T06:49:32;3.90;65.70
52036;DHT22;38046;49.448;32.074;2023-03-01T06:51:58;3.80;65.60
52036;DHT22;38046;49.448;32.074;2023-03-01T06:54:23;3.70;65.80
52036;DHT22;38046;49.448;32.074;2023-03-01T06:56:49;3.60;66.10
52036;DHT22;38046;49.448;32.074;2023-03-01T06:59:16;3.60;66.10
52036;DHT22;38046;49.448;32.074;2023-03-01T07:01:42;3.60;66.50
52036;DHT22;38046;49.448;32.074;2023-03-01T07:04:07;3.60;66.70
52036;DHT22;38046;49.448;32.074;2023-03-01T07:06:33;3.60;66.80
52036;DHT22;38046;49.448;32.074;2023-03-01T07:08:59;3.60;67.00
52036;DHT22;38046;49.448;32.074;2023-03-01T07:11:24;3.60;67.10
52036;DHT22;38046;49.448;32.074;2023-03-01T07:13:50;3.60;67.20
52036;DHT22;38046;49.448;32.074;2023-03-01T07:16:16;3.60;67.40
52036;DHT22;38046;49.448;32.074;2023-03-01T07:18:42;3.60;67.70
52036;DHT22;38046;49.448;32.074;2023-03-01T07:21:09;3.70;68.00
52036;DHT22;38046;49.448;32.074;2023-03-01T07:23:36;3.80;67.90
52036;DHT22;38046;49.448;32.074;2023-03-01T07:26:02;3.90;67.90
52036;DHT22;38046;49.448;32.074;2023-03-01T07:28:28;3.90;68.10
52036;DHT22;38046;49.448;32.074;2023-03-01T07:30:54;3.90;67.20
52036;DHT22;38046;49.448;32.074;2023-03-01T07:33:20;4.00;67.10
52036;DHT22;38046;49.448;32.074;2023-03-01T07:35:46;4.00;67.30
52036;DHT22;38046;49.448;32.074;2023-03-01T07:38:11;4.00;67.20
52036;DHT22;38046;49.448;32.074;2023-03-01T07:40:37;4.00;67.20
52036;DHT22;38046;49.448;32.074;2023-03-01T07:43:03;3.90;67.40
52036;DHT22;38046;49.448;32.074;2023-03-01T07:45:29;3.90;67.30
52036;DHT22;38046;49.448;32.074;2023-03-01T07:47:55;3.90;67.40
52036;DHT22;38046;49.448;32.074;2023-03-01T07:50:22;3.90;67.80
52036;DHT22;38046;49.448;32.074;2023-03-01T07:52:49;3.90;67.50
52036;DHT22;38046;49.448;32.074;2023-03-01T07:55:15;3.90;68.00
52036;DHT22;38046;49.448;32.074;2023-03-01T07:57:41;3.90;68.10
52036;DHT22;38046;49.448;32.074;2023-03-01T08:00:09;3.90;68.20
52036;DHT22;38046;49.448;32.074;2023-03-01T08:02:35;3.90;68.20
52036;DHT22;38046;49.448;32.074;2023-03-01T08:05:01;3.80;68.20
52036;DHT22;38046;49.448;32.074;2023-03-01T08:07:27;3.80;68.40
52036;DHT22;38046;49.448;32.074;2023-03-01T08:09:52;3.70;68.50
52036;DHT22;38046;49.448;32.074;2023-03-01T08:12:21;3.70;68.60
52036;DHT22;38046;49.448;32.074;2023-03-01T08:14:46;3.80;68.90
52036;DHT22;38046;49.448;32.074;2023-03-01T08:17:15;3.80;69.20
52036;DHT22;38046;49.448;32.074;2023-03-01T08:19:42;3.80;69.10
52036;DHT22;38046;49.448;32.074;2023-03-01T08:22:08;3.90;69.30
52036;DHT22;38046;49.448;32.074;2023-03-01T08:24:33;4.00;69.30
52036;DHT22;38046;49.448;32.074;2023-03-01T08:26:59;4.10;69.10
52036;DHT22;38046;49.448;32.074;2023-03-01T08:29:25;4.20;69.10
52036;DHT22;38046;49.448;32.074;2023-03-01T08:31:50;4.20;69.00
52036;DHT22;38046;49.448;32.074;2023-03-01T08:34:17;4.30;69.10
52036;DHT22;38046;49.448;32.074;2023-03-01T08:36:45;4.40;69.00
52036;DHT22;38046;49.448;32.074;2023-03-01T08:39:14;4.50;69.20
52036;DHT22;38046;49.448;32.074;2023-03-01T08:41:41;4.50;68.70
52036;DHT22;38046;49.448;32.074;2023-03-01T08:44:08;4.60;68.90
52036;DHT22;38046;49.448;32.074;2023-03-01T08:46:39;4.70;69.00
52036;DHT22;38046;49.448;32.074;2023-03-01T08:49:06;4.80;68.70
52036;DHT22;38046;49.448;32.074;2023-03-01T08:51:32;4.80;68.50
52036;DHT22;38046;49.448;32.074;2023-03-01T08:54:03;4.90;68.60
52036;DHT22;38046;49.448;32.074;2023-03-01T08:56:29;5.00;68.50
52036;DHT22;38046;49.448;32.074;2023-03-01T09:08:44;5.20;68.30
52036;DHT22;38046;49.448;32.074;2023-03-01T09:11:18;5.20;68.50
52036;DHT22;38046;49.448;32.074;2023-03-01T09:13:45;5.20;68.30
52036;DHT22;38046;49.448;32.074;2023-03-01T09:16:13;5.20;68.00
52036;DHT22;38046;49.448;32.074;2023-03-01T09:18:39;5.30;68.00
52036;DHT22;38046;49.448;32.074;2023-03-01T09:21:08;5.30;68.10
52036;DHT22;38046;49.448;32.074;2023-03-01T09:23:39;5.30;68.00
52036;DHT22;38046;49.448;32.074;2023-03-01T09:26:06;5.30;68.00
52036;DHT22;38046;49.448;32.074;2023-03-01T09:28:34;5.30;68.40
52036;DHT22;38046;49.448;32.074;2023-03-01T09:31:01;5.30;68.70
52036;DHT22;38046;49.448;32.074;2023-03-01T09:33:28;5.30;68.80
52036;DHT22;38046;49.448;32.074;2023-03-01T09:36:14;5.30;68.80
52036;DHT22;38046;49.448;32.074;2023-03-01T09:38:40;5.40;69.00
52036;DHT22;38046;49.448;32.074;2023-03-01T09:46:50;5.50;68.50
52036;DHT22;38046;49.448;32.074;2023-03-01T09:49:23;5.40;68.40
52036;DHT22;38046;49.448;32.074;2023-03-01T09:52:19;5.50;68.30
52036;DHT22;38046;49.448;32.074;2023-03-01T09:54:47;5.50;68.30
52036;DHT22;38046;49.448;32.074;2023-03-01T09:57:37;5.50;68.50
52036;DHT22;38046;49.448;32.074;2023-03-01T10:00:22;5.50;68.30
52036;DHT22;38046;49.448;32.074;2023-03-01T10:03:41;5.50;68.10
52036;DHT22;38046;49.448;32.074;2023-03-01T10:08:40;5.50;68.30
52036;DHT22;38046;49.448;32.074;2023-03-01T10:11:24;5.50;68.30
52036;DHT22;38046;49.448;32.074;2023-03-01T10:13:56;5.50;68.20
52036;DHT22;38046;49.448;32.074;2023-03-01T10:17:03;5.50;68.50
52036;DHT22;38046;49.448;32.074;2023-03-01T10:19:34;5.50;68.50
52036;DHT22;38046;49.448;32.074;2023-03-01T10:22:24;5.50;68.40
52036;DHT22;38046;49.448;32.074;2023-03-01T10:24:54;5.50;68.20
52036;DHT22;38046;49.448;32.074;2023-03-01T10:27:24;5.40;68.50
52036;DHT22;38046;49.448;32.074;2023-03-01T10:32:42;5.50;68.40
52036;DHT22;38046;49.448;32.074;2023-03-01T10:35:19;5.50;68.40
52036;DHT22;38046;49.448;32.074;2023-03-01T10:38:05;5.50;68.50
52036;DHT22;38046;49.448;32.074;2023-03-01T10:40:32;5.50;68.70
52036;DHT22;38046;49.448;32.074;2023-03-01T10:43:01;5.60;68.80
52036;DHT22;38046;49.448;32.074;2023-03-01T10:45:31;5.70;69.00
52036;DHT22;38046;49.448;32.074;2023-03-01T10:48:13;5.70;68.90
52036;DHT22;38046;49.448;32.074;2023-03-01T10:50:45;5.80;68.80
52036;DHT22;38046;49.448;32.074;2023-03-01T10:53:42;5.80;68.50
52036;DHT22;38046;49.448;32.074;2023-03-01T10:56:10;5.80;68.10
52036;DHT22;38046;49.448;32.074;2023-03-01T10:58:40;5.80;68.40
52036;DHT22;38046;49.448;32.074;2023-03-01T11:06:31;5.90;68.60
52036;DHT22;38046;49.448;32.074;2023-03-01T11:08:56;5.90;68.80
52036;DHT22;38046;49.448;32.074;2023-03-01T11:11:33;5.80;68.80
52036;DHT22;38046;49.448;32.074;2023-03-01T11:14:03;5.80;68.60
52036;DHT22;38046;49.448;32.074;2023-03-01T11:16:35;5.80;68.50
52036;DHT22;38046;49.448;32.074;2023-03-01T11:19:14;5.80;68.50
52036;DHT22;38046;49.448;32.074;2023-03-01T11:21:53;5.80;68.40
52036;DHT22;38046;49.448;32.074;2023-03-01T11:24:32;5.80;68.50
52036;DHT22;38046;49.448;32.074;2023-03-01T11:27:03;5.80;68.60
52036;DHT22;38046;49.448;32.074;2023-03-01T11:29:42;5.80;68.50
52036;DHT22;38046;49.448;32.074;2023-03-01T11:32:13;5.90;68.60
52036;DHT22;38046;49.448;32.074;2023-03-01T11:37:42;6.00;68.10
52036;DHT22;38046;49.448;32.074;2023-03-01T11:40:26;6.00;68.20
52036;DHT22;38046;49.448;32.074;2023-03-01T11:49:19;6.10;68.60
52036;DHT22;38046;49.448;32.074;2023-03-01T11:54:26;6.10;68.60
52036;DHT22;38046;49.448;32.074;2023-03-01T11:59:44;6.10;68.50
52036;DHT22;38046;49.448;32.074;2023-03-01T12:02:40;6.10;68.60
52036;DHT22;38046;49.448;32.074;2023-03-01T12:06:04;6.00;68.50
52036;DHT22;38046;49.448;32.074;2023-03-01T12:20:01;5.70;68.80
52036;DHT22;38046;49.448;32.074;2023-03-01T12:30:59;5.50;69.30
52036;DHT22;38046;49.448;32.074;2023-03-01T12:33:54;5.50;69.40
52036;DHT22;38046;49.448;32.074;2023-03-01T12:47:11;5.40;69.70
52036;DHT22;38046;49.448;32.074;2023-03-01T12:49:59;5.40;69.70
52036;DHT22;38046;49.448;32.074;2023-03-01T12:52:47;5.40;69.70
52036;DHT22;38046;49.448;32.074;2023-03-01T12:55:36;5.30;69.70
52036;DHT22;38046;49.448;32.074;2023-03-01T13:04:23;5.40;69.60
52036;DHT22;38046;49.448;32.074;2023-03-01T13:07:14;5.50;69.60
52036;DHT22;38046;49.448;32.074;2023-03-01T13:09:43;5.50;69.50
52036;DHT22;38046;49.448;32.074;2023-03-01T13:15:25;5.60;69.30
52036;DHT22;38046;49.448;32.074;2023-03-01T13:17:57;5.60;69.30
52036;DHT22;38046;49.448;32.074;2023-03-01T13:31:07;5.60;69.30
52036;DHT22;38046;49.448;32.074;2023-03-01T13:33:40;5.70;69.30
52036;DHT22;38046;49.448;32.074;2023-03-01T13:36:07;5.70;69.50
52036;DHT22;38046;49.448;32.074;2023-03-01T13:44:32;5.60;69.00
52036;DHT22;38046;49.448;32.074;2023-03-01T13:54:57;5.50;69.20
52036;DHT22;38046;49.448;32.074;2023-03-01T13:57:28;5.40;69.20
52036;DHT22;38046;49.448;32.074;2023-03-01T13:59:55;5.40;69.30
52036;DHT22;38046;49.448;32.074;2023-03-01T14:02:21;5.40;69.20
52036;DHT22;38046;49.448;32.074;2023-03-01T14:04:57;5.40;69.40
52036;DHT22;38046;49.448;32.074;2023-03-01T14:07:25;5.40;69.50
52036;DHT22;38046;49.448;32.074;2023-03-01T14:09:56;5.40;69.50
52036;DHT22;38046;49.448;32.074;2023-03-01T14:20:21;5.30;69.20
52036;DHT22;38046;49.448;32.074;2023-03-01T14:22:49;5.30;69.30
52036;DHT22;38046;49.448;32.074;2023-03-01T14:25:25;5.30;69.50
52036;DHT22;38046;49.448;32.074;2023-03-01T14:27:58;5.30;69.50
52036;DHT22;38046;49.448;32.074;2023-03-01T14:30:27;5.30;69.60
52036;DHT22;38046;49.448;32.074;2023-03-01T14:33:01;5.30;69.60
52036;DHT22;38046;49.448;32.074;2023-03-01T14:35:30;5.30;69.60
52036;DHT22;38046;49.448;32.074;2023-03-01T14:37:56;5.20;69.60
52036;DHT22;38046;49.448;32.074;2023-03-01T14:40:25;5.20;69.70
52036;DHT22;38046;49.448;32.074;2023-03-01T14:42:51;5.20;69.70
52036;DHT22;38046;49.448;32.074;2023-03-01T14:45:18;5.20;69.70
52036;DHT22;38046;49.448;32.074;2023-03-01T14:47:47;5.20;69.70
52036;DHT22;38046;49.448;32.074;2023-03-01T14:50:24;5.20;69.90
52036;DHT22;38046;49.448;32.074;2023-03-01T14:52:54;5.20;69.90
52036;DHT22;38046;49.448;32.074;2023-03-01T14:55:24;5.20;69.80
52036;DHT22;38046;49.448;32.074;2023-03-01T14:57:51;5.20;69.80
52036;DHT22;38046;49.448;32.074;2023-03-01T15:00:23;5.20;70.00
52036;DHT22;38046;49.448;32.074;2023-03-01T15:02:51;5.20;70.10
52036;DHT22;38046;49.448;32.074;2023-03-01T15:05:37;5.10;70.00
52036;DHT22;38046;49.448;32.074;2023-03-01T15:08:03;5.10;70.00
52036;DHT22;38046;49.448;32.074;2023-03-01T15:10:36;5.00;70.20
52036;DHT22;38046;49.448;32.074;2023-03-01T15:13:35;5.00;70.40
52036;DHT22;38046;49.448;32.074;2023-03-01T15:18:37;4.90;70.50
52036;DHT22;38046;49.448;32.074;2023-03-01T15:21:15;4.90;70.60
52036;DHT22;38046;49.448;32.074;2023-03-01T15:23:41;4.90;70.70
52036;DHT22;38046;49.448;32.074;2023-03-01T15:26:25;4.90;70.80
52036;DHT22;38046;49.448;32.074;2023-03-01T15:28:53;4.90;70.70
52036;DHT22;38046;49.448;32.074;2023-03-01T15:31:26;4.90;70.70
52036;DHT22;38046;49.448;32.074;2023-03-01T15:34:23;4.90;70.70
52036;DHT22;38046;49.448;32.074;2023-03-01T15:36:50;4.90;70.60
52036;DHT22;38046;49.448;32.074;2023-03-01T15:39:39;5.00;70.80
52036;DHT22;38046;49.448;32.074;2023-03-01T15:47:56;4.90;70.80
52036;DHT22;38046;49.448;32.074;2023-03-01T15:50:36;4.90;70.80
52036;DHT22;38046;49.448;32.074;2023-03-01T15:53:09;4.90;70.90
52036;DHT22;38046;49.448;32.074;2023-03-01T15:55:36;4.90;71.10
52036;DHT22;38046;49.448;32.074;2023-03-01T16:00:32;4.90;71.10
52036;DHT22;38046;49.448;32.074;2023-03-01T16:02:58;4.90;71.10
52036;DHT22;38046;49.448;32.074;2023-03-01T16:05:29;4.90;71.20
52036;DHT22;38046;49.448;32.074;2023-03-01T16:07:58;4.90;71.20
52036;DHT22;38046;49.448;32.074;2023-03-01T16:10:24;4.90;71.20
52036;DHT22;38046;49.448;32.074;2023-03-01T16:12:51;4.90;71.20
52036;DHT22;38046;49.448;32.074;2023-03-01T16:15:23;4.90;71.30
52036;DHT22;38046;49.448;32.074;2023-03-01T16:17:49;4.90;71.30
52036;DHT22;38046;49.448;32.074;2023-03-01T16:20:15;4.80;71.40
52036;DHT22;38046;49.448;32.074;2023-03-01T16:22:44;4.80;71.20
52036;DHT22;38046;49.448;32.074;2023-03-01T16:25:15;4.90;71.30
52036;DHT22;38046;49.448;32.074;2023-03-01T16:27:42;4.80;71.40
52036;DHT22;38046;49.448;32.074;2023-03-01T16:30:08;4.80;71.40
52036;DHT22;38046;49.448;32.074;2023-03-01T16:32:42;4.90;71.40
52036;DHT22;38046;49.448;32.074;2023-03-01T16:35:11;4.90;71.40
52036;DHT22;38046;49.448;32.074;2023-03-01T16:37:37;4.90;71.40
52036;DHT22;38046;49.448;32.074;2023-03-01T16:40:05;4.80;71.40
52036;DHT22;38046;49.448;32.074;2023-03-01T16:42:35;4.90;71.50
52036;DHT22;38046;49.448;32.074;2023-03-01T16:45:00;4.80;71.50
52036;DHT22;38046;49.448;32.074;2023-03-01T16:47:27;4.80;71.60
52036;DHT22;38046;49.448;32.074;2023-03-01T16:49:54;4.80;71.40
52036;DHT22;38046;49.448;32.074;2023-03-01T16:52:21;4.90;71.70
52036;DHT22;38046;49.448;32.074;2023-03-01T16:54:46;4.80;71.50
52036;DHT22;38046;49.448;32.074;2023-03-01T16:57:12;4.80;71.70
52036;DHT22;38046;49.448;32.074;2023-03-01T16:59:38;4.80;71.70
52036;DHT22;38046;49.448;32.074;2023-03-01T17:02:04;4.80;71.90
52036;DHT22;38046;49.448;32.074;2023-03-01T17:04:31;4.80;72.00
52036;DHT22;38046;49.448;32.074;2023-03-01T17:06:57;4.70;72.00
52036;DHT22;38046;49.448;32.074;2023-03-01T17:09:23;4.70;72.10
52036;DHT22;38046;49.448;32.074;2023-03-01T17:11:49;4.80;72.20
52036;DHT22;38046;49.448;32.074;2023-03-01T17:14:15;4.80;72.20
52036;DHT22;38046;49.448;32.074;2023-03-01T17:16:43;4.70;72.10
52036;DHT22;38046;49.448;32.074;2023-03-01T17:19:10;4.70;72.10
52036;DHT22;38046;49.448;32.074;2023-03-01T17:21:36;4.70;72.10
52036;DHT22;38046;49.448;32.074;2023-03-01T17:24:02;4.70;72.10
52036;DHT22;38046;49.448;32.074;2023-03-01T17:26:28;4.70;72.10
52036;DHT22;38046;49.448;32.074;2023-03-01T17:28:55;4.70;72.30
52036;DHT22;38046;49.448;32.074;2023-03-01T17:31:22;4.70;72.30
52036;DHT22;38046;49.448;32.074;2023-03-01T17:33:48;4.70;72.30
52036;DHT22;38046;49.448;32.074;2023-03-01T17:36:14;4.70;72.30
52036;DHT22;38046;49.448;32.074;2023-03-01T17:38:40;4.70;72.30
52036;DHT22;38046;49.448;32.074;2023-03-01T17:41:06;4.70;72.30
52036;DHT22;38046;49.448;32.074;2023-03-01T17:43:32;4.70;72.30
52036;DHT22;38046;49.448;32.074;2023-03-01T17:45:59;4.70;72.50
52036;DHT22;38046;49.448;32.074;2023-03-01T17:48:25;4.70;72.50
52036;DHT22;38046;49.448;32.074;2023-03-01T17:50:50;4.70;72.50
52036;DHT22;38046;49.448;32.074;2023-03-01T17:53:16;4.70;73.20
52036;DHT22;38046;49.448;32.074;2023-03-01T17:55:43;4.70;72.60
52036;DHT22;38046;49.448;32.074;2023-03-01T17:58:12;4.70;72.60
52036;DHT22;38046;49.448;32.074;2023-03-01T18:00:38;4.70;72.60